sensor_id;sensor_type;location;lat;lon;timestamp;P1;durP1;ratioP1;P2;durP2;ratioP2
32186;SDS011;18686;53.084;8.872;2024-03-06T00:00:01;11.98;;;8.18;;
32186;SDS011;18686;53.084;8.872;2024-03-06T00:02:31;13.38;;;8.85;;
32186;SDS011;18686;53.084;8.872;2024-03-06T00:05:01;15.02;;;8.75;;
32186;SDS011;18686;53.084;8.872;2024-03-06T00:07:29;13.00;;;8.48;;
32186;SDS011;18686;53.084;8.872;2024-03-06T00:09:59;13.32;;;9.77;;
32186;SDS011;18686;53.084;8.872;2024-03-06T00:12:27;15.32;;;9.60;;
32186;SDS011;18686;53.084;8.872;2024-03-06T00:14:56;16.63;;;9.40;;
32186;SDS011;18686;53.084;8.872;2024-03-06T00:17:24;12.93;;;8.57;;
32186;SDS011;18686;53.084;8.872;2024-03-06T00:19:53;12.63;;;8.80;;
32186;SDS011;18686;53.084;8.872;2024-03-06T00:22:23;10.82;;;8.23;;
32186;SDS011;18686;53.084;8.872;2024-03-06T00:24:51;11.95;;;8.73;;
32186;SDS011;18686;53.084;8.872;2024-03-06T00:27:19;13.90;;;9.20;;
32186;SDS011;18686;53.084;8.872;2024-03-06T00:29:47;15.57;;;9.32;;
32186;SDS011;18686;53.084;8.872;2024-03-06T00:32:16;16.52;;;9.25;;
32186;SDS011;18686;53.084;8.872;2024-03-06T00:34:44;12.18;;;9.45;;
32186;SDS011;18686;53.084;8.872;2024-03-06T00:37:12;11.90;;;8.93;;
32186;SDS011;18686;53.084;8.872;2024-03-06T00:39:42;12.95;;;9.02;;
32186;SDS011;18686;53.084;8.872;2024-03-06T00:42:10;13.35;;;8.43;;
32186;SDS011;18686;53.084;8.872;2024-03-06T00:44:40;15.10;;;9.57;;
32186;SDS011;18686;53.084;8.872;2024-03-06T00:47:08;11.85;;;8.85;;
32186;SDS011;18686;53.084;8.872;2024-03-06T00:49:37;13.30;;;9.35;;
32186;SDS011;18686;53.084;8.872;2024-03-06T00:52:05;12.18;;;9.05;;
32186;SDS011;18686;53.084;8.872;2024-03-06T00:54:33;16.63;;;9.20;;
32186;SDS011;18686;53.084;8.872;2024-03-06T00:57:03;16.30;;;9.35;;
32186;SDS011;18686;53.084;8.872;2024-03-06T00:59:32;11.50;;;8.90;;
32186;SDS011;18686;53.084;8.872;2024-03-06T01:02:00;13.05;;;8.60;;
32186;SDS011;18686;53.084;8.872;2024-03-06T01:04:30;14.85;;;9.30;;
32186;SDS011;18686;53.084;8.872;2024-03-06T01:06:58;13.50;;;9.13;;
32186;SDS011;18686;53.084;8.872;2024-03-06T01:09:27;13.55;;;9.23;;
32186;SDS011;18686;53.084;8.872;2024-03-06T01:11:55;15.43;;;8.68;;
32186;SDS011;18686;53.084;8.872;2024-03-06T01:14:25;13.65;;;8.90;;
32186;SDS011;18686;53.084;8.872;2024-03-06T01:16:53;14.50;;;9.63;;
32186;SDS011;18686;53.084;8.872;2024-03-06T01:19:22;16.25;;;9.35;;
32186;SDS011;18686;53.084;8.872;2024-03-06T01:21:51;12.55;;;9.20;;
32186;SDS011;18686;53.084;8.872;2024-03-06T01:24:19;14.90;;;9.18;;
32186;SDS011;18686;53.084;8.872;2024-03-06T01:26:47;14.30;;;9.90;;
32186;SDS011;18686;53.084;8.872;2024-03-06T01:29:15;12.63;;;8.80;;
32186;SDS011;18686;53.084;8.872;2024-03-06T01:31:46;14.45;;;9.43;;
32186;SDS011;18686;53.084;8.872;2024-03-06T01:34:14;13.25;;;9.18;;
32186;SDS011;18686;53.084;8.872;2024-03-06T01:36:42;16.60;;;10.10;;
32186;SDS011;18686;53.084;8.872;2024-03-06T01:39:11;16.70;;;9.60;;
32186;SDS011;18686;53.084;8.872;2024-03-06T01:41:44;16.73;;;9.85;;
32186;SDS011;18686;53.084;8.872;2024-03-06T01:44:13;17.90;;;10.43;;
32186;SDS011;18686;53.084;8.872;2024-03-06T01:46:42;12.82;;;8.85;;
32186;SDS011;18686;53.084;8.872;2024-03-06T01:49:12;14.38;;;9.90;;
32186;SDS011;18686;53.084;8.872;2024-03-06T01:51:57;13.18;;;9.38;;
32186;SDS011;18686;53.084;8.872;2024-03-06T01:54:27;15.02;;;9.38;;
32186;SDS011;18686;53.084;8.872;2024-03-06T01:56:55;17.13;;;9.52;;
32186;SDS011;18686;53.084;8.872;2024-03-06T01:59:26;14.82;;;9.10;;
32186;SDS011;18686;53.084;8.872;2024-03-06T02:02:02;13.85;;;8.95;;
32186;SDS011;18686;53.084;8.872;2024-03-06T02:04:33;15.02;;;9.02;;
32186;SDS011;18686;53.084;8.872;2024-03-06T02:07:01;14.38;;;9.77;;
32186;SDS011;18686;53.084;8.872;2024-03-06T02:09:30;14.75;;;9.57;;
32186;SDS011;18686;53.084;8.872;2024-03-06T02:11:59;12.25;;;8.45;;
32186;SDS011;18686;53.084;8.872;2024-03-06T02:14:27;13.77;;;9.10;;
32186;SDS011;18686;53.084;8.872;2024-03-06T02:16:56;14.32;;;9.05;;
32186;SDS011;18686;53.084;8.872;2024-03-06T02:19:25;14.73;;;8.95;;
32186;SDS011;18686;53.084;8.872;2024-03-06T02:22:11;13.85;;;9.55;;
32186;SDS011;18686;53.084;8.872;2024-03-06T02:24:42;16.15;;;9.32;;
32186;SDS011;18686;53.084;8.872;2024-03-06T02:27:12;13.68;;;9.13;;
32186;SDS011;18686;53.084;8.872;2024-03-06T02:29:40;12.48;;;8.70;;
32186;SDS011;18686;53.084;8.872;2024-03-06T02:32:08;12.82;;;9.15;;
32186;SDS011;18686;53.084;8.872;2024-03-06T02:34:40;14.63;;;10.10;;
32186;SDS011;18686;53.084;8.872;2024-03-06T02:37:08;13.98;;;9.02;;
32186;SDS011;18686;53.084;8.872;2024-03-06T02:39:39;14.73;;;9.40;;
32186;SDS011;18686;53.084;8.872;2024-03-06T02:42:07;20.38;;;10.50;;
32186;SDS011;18686;53.084;8.872;2024-03-06T02:44:36;16.65;;;9.90;;
32186;SDS011;18686;53.084;8.872;2024-03-06T02:47:05;15.25;;;8.98;;
32186;SDS011;18686;53.084;8.872;2024-03-06T02:49:33;12.98;;;8.82;;
32186;SDS011;18686;53.084;8.872;2024-03-06T02:52:03;15.73;;;9.07;;
32186;SDS011;18686;53.084;8.872;2024-03-06T02:54:31;14.23;;;8.93;;
32186;SDS011;18686;53.084;8.872;2024-03-06T02:57:01;13.23;;;9.60;;
32186;SDS011;18686;53.084;8.872;2024-03-06T02:59:29;15.27;;;9.95;;
32186;SDS011;18686;53.084;8.872;2024-03-06T03:01:57;12.02;;;9.05;;
32186;SDS011;18686;53.084;8.872;2024-03-06T03:04:26;15.52;;;10.10;;
32186;SDS011;18686;53.084;8.872;2024-03-06T03:06:55;16.05;;;9.73;;
32186;SDS011;18686;53.084;8.872;2024-03-06T03:09:24;15.27;;;9.65;;
32186;SDS011;18686;53.084;8.872;2024-03-06T03:11:52;14.10;;;9.23;;
32186;SDS011;18686;53.084;8.872;2024-03-06T03:14:23;16.63;;;10.07;;
32186;SDS011;18686;53.084;8.872;2024-03-06T03:16:51;14.52;;;9.15;;
32186;SDS011;18686;53.084;8.872;2024-03-06T03:19:20;13.93;;;9.30;;
32186;SDS011;18686;53.084;8.872;2024-03-06T03:21:48;13.02;;;9.32;;
32186;SDS011;18686;53.084;8.872;2024-03-06T03:24:16;13.82;;;10.02;;
32186;SDS011;18686;53.084;8.872;2024-03-06T03:26:46;14.50;;;9.73;;
32186;SDS011;18686;53.084;8.872;2024-03-06T03:29:15;18.23;;;9.95;;
32186;SDS011;18686;53.084;8.872;2024-03-06T03:31:44;13.13;;;9.80;;
32186;SDS011;18686;53.084;8.872;2024-03-06T03:34:13;14.02;;;9.32;;
32186;SDS011;18686;53.084;8.872;2024-03-06T03:36:41;14.77;;;9.48;;
32186;SDS011;18686;53.084;8.872;2024-03-06T03:39:10;13.68;;;10.35;;
32186;SDS011;18686;53.084;8.872;2024-03-06T03:41:43;13.53;;;10.23;;
32186;SDS011;18686;53.084;8.872;2024-03-06T03:44:12;15.07;;;10.18;;
32186;SDS011;18686;53.084;8.872;2024-03-06T03:46:41;16.92;;;9.93;;
32186;SDS011;18686;53.084;8.872;2024-03-06T03:49:11;13.60;;;10.32;;
32186;SDS011;18686;53.084;8.872;2024-03-06T03:51:40;15.35;;;10.15;;
32186;SDS011;18686;53.084;8.872;2024-03-06T03:54:08;13.48;;;9.90;;
32186;SDS011;18686;53.084;8.872;2024-03-06T03:56:36;16.25;;;9.93;;
32186;SDS011;18686;53.084;8.872;2024-03-06T03:59:05;14.77;;;10.20;;
32186;SDS011;18686;53.084;8.872;2024-03-06T04:01:34;14.77;;;9.90;;
32186;SDS011;18686;53.084;8.872;2024-03-06T04:04:02;15.50;;;9.07;;
32186;SDS011;18686;53.084;8.872;2024-03-06T04:06:32;11.93;;;9.07;;
32186;SDS011;18686;53.084;8.872;2024-03-06T04:09:00;15.30;;;9.45;;
32186;SDS011;18686;53.084;8.872;2024-03-06T04:11:29;14.55;;;10.27;;
32186;SDS011;18686;53.084;8.872;2024-03-06T04:13:58;19.77;;;11.10;;
32186;SDS011;18686;53.084;8.872;2024-03-06T04:16:28;15.38;;;10.68;;
32186;SDS011;18686;53.084;8.872;2024-03-06T04:18:59;17.15;;;9.80;;
32186;SDS011;18686;53.084;8.872;2024-03-06T04:21:28;14.00;;;10.00;;
32186;SDS011;18686;53.084;8.872;2024-03-06T04:23:58;12.60;;;9.95;;
32186;SDS011;18686;53.084;8.872;2024-03-06T04:26:26;13.25;;;9.25;;
32186;SDS011;18686;53.084;8.872;2024-03-06T04:28:54;14.38;;;9.73;;
32186;SDS011;18686;53.084;8.872;2024-03-06T04:31:23;14.75;;;10.13;;
32186;SDS011;18686;53.084;8.872;2024-03-06T04:33:51;15.75;;;10.23;;
32186;SDS011;18686;53.084;8.872;2024-03-06T04:36:19;13.27;;;9.20;;
32186;SDS011;18686;53.084;8.872;2024-03-06T04:38:47;15.13;;;10.07;;
32186;SDS011;18686;53.084;8.872;2024-03-06T04:41:19;13.25;;;9.40;;
32186;SDS011;18686;53.084;8.872;2024-03-06T04:43:47;17.38;;;9.90;;
32186;SDS011;18686;53.084;8.872;2024-03-06T04:46:17;12.52;;;9.15;;
32186;SDS011;18686;53.084;8.872;2024-03-06T04:48:46;12.95;;;8.70;;
32186;SDS011;18686;53.084;8.872;2024-03-06T04:51:15;14.40;;;9.52;;
32186;SDS011;18686;53.084;8.872;2024-03-06T04:53:46;14.48;;;9.70;;
32186;SDS011;18686;53.084;8.872;2024-03-06T04:56:15;15.27;;;9.80;;
32186;SDS011;18686;53.084;8.872;2024-03-06T04:58:47;14.48;;;9.20;;
32186;SDS011;18686;53.084;8.872;2024-03-06T05:01:15;13.23;;;9.52;;
32186;SDS011;18686;53.084;8.872;2024-03-06T05:03:43;14.50;;;9.70;;
32186;SDS011;18686;53.084;8.872;2024-03-06T05:06:29;13.15;;;9.68;;
32186;SDS011;18686;53.084;8.872;2024-03-06T05:09:15;14.23;;;9.50;;
32186;SDS011;18686;53.084;8.872;2024-03-06T05:12:02;13.57;;;10.20;;
32186;SDS011;18686;53.084;8.872;2024-03-06T05:14:50;15.70;;;10.20;;
32186;SDS011;18686;53.084;8.872;2024-03-06T05:17:37;13.23;;;8.98;;
32186;SDS011;18686;53.084;8.872;2024-03-06T05:20:22;14.07;;;9.10;;
32186;SDS011;18686;53.084;8.872;2024-03-06T05:23:08;14.20;;;9.48;;
32186;SDS011;18686;53.084;8.872;2024-03-06T05:25:54;14.63;;;9.68;;
32186;SDS011;18686;53.084;8.872;2024-03-06T05:28:40;15.30;;;9.18;;
32186;SDS011;18686;53.084;8.872;2024-03-06T05:31:27;13.48;;;9.57;;
32186;SDS011;18686;53.084;8.872;2024-03-06T05:34:14;16.73;;;10.07;;
32186;SDS011;18686;53.084;8.872;2024-03-06T05:37:00;17.33;;;10.23;;
32186;SDS011;18686;53.084;8.872;2024-03-06T05:39:47;21.10;;;10.30;;
32186;SDS011;18686;53.084;8.872;2024-03-06T05:42:33;14.02;;;9.63;;
32186;SDS011;18686;53.084;8.872;2024-03-06T05:45:19;14.45;;;9.57;;
32186;SDS011;18686;53.084;8.872;2024-03-06T05:48:06;15.63;;;9.95;;
32186;SDS011;18686;53.084;8.872;2024-03-06T05:50:53;17.50;;;10.15;;
32186;SDS011;18686;53.084;8.872;2024-03-06T05:53:39;14.00;;;9.50;;
32186;SDS011;18686;53.084;8.872;2024-03-06T05:56:26;16.48;;;10.35;;
32186;SDS011;18686;53.084;8.872;2024-03-06T05:59:11;19.10;;;10.68;;
32186;SDS011;18686;53.084;8.872;2024-03-06T06:01:40;13.77;;;10.18;;
32186;SDS011;18686;53.084;8.872;2024-03-06T06:04:10;18.13;;;11.13;;
32186;SDS011;18686;53.084;8.872;2024-03-06T06:06:40;15.23;;;10.27;;
32186;SDS011;18686;53.084;8.872;2024-03-06T06:09:08;17.73;;;10.55;;
32186;SDS011;18686;53.084;8.872;2024-03-06T06:11:42;16.13;;;10.52;;
32186;SDS011;18686;53.084;8.872;2024-03-06T06:14:11;16.73;;;11.20;;
32186;SDS011;18686;53.084;8.872;2024-03-06T06:16:40;16.13;;;10.43;;
32186;SDS011;18686;53.084;8.872;2024-03-06T06:19:11;18.27;;;10.75;;
32186;SDS011;18686;53.084;8.872;2024-03-06T06:21:39;15.00;;;10.02;;
32186;SDS011;18686;53.084;8.872;2024-03-06T06:24:07;17.40;;;11.10;;
32186;SDS011;18686;53.084;8.872;2024-03-06T06:26:36;19.20;;;10.55;;
32186;SDS011;18686;53.084;8.872;2024-03-06T06:29:05;15.70;;;10.57;;
32186;SDS011;18686;53.084;8.872;2024-03-06T06:31:34;15.88;;;10.07;;
32186;SDS011;18686;53.084;8.872;2024-03-06T06:34:04;16.33;;;10.40;;
32186;SDS011;18686;53.084;8.872;2024-03-06T06:36:34;17.52;;;10.80;;
32186;SDS011;18686;53.084;8.872;2024-03-06T06:39:04;15.38;;;10.02;;
32186;SDS011;18686;53.084;8.872;2024-03-06T06:41:33;14.20;;;9.63;;
32186;SDS011;18686;53.084;8.872;2024-03-06T06:44:01;17.80;;;10.63;;
32186;SDS011;18686;53.084;8.872;2024-03-06T06:46:29;15.80;;;9.93;;
32186;SDS011;18686;53.084;8.872;2024-03-06T06:48:58;16.25;;;9.90;;
32186;SDS011;18686;53.084;8.872;2024-03-06T06:51:26;15.60;;;10.45;;
32186;SDS011;18686;53.084;8.872;2024-03-06T06:53:56;16.35;;;10.82;;
32186;SDS011;18686;53.084;8.872;2024-03-06T06:56:26;19.63;;;10.88;;
32186;SDS011;18686;53.084;8.872;2024-03-06T06:58:55;16.23;;;10.52;;
32186;SDS011;18686;53.084;8.872;2024-03-06T07:01:24;15.63;;;10.65;;
32186;SDS011;18686;53.084;8.872;2024-03-06T07:03:54;16.98;;;10.65;;
32186;SDS011;18686;53.084;8.872;2024-03-06T07:06:22;16.20;;;9.88;;
32186;SDS011;18686;53.084;8.872;2024-03-06T07:08:50;19.35;;;11.40;;
32186;SDS011;18686;53.084;8.872;2024-03-06T07:11:20;16.20;;;10.15;;
32186;SDS011;18686;53.084;8.872;2024-03-06T07:13:49;16.83;;;10.90;;
32186;SDS011;18686;53.084;8.872;2024-03-06T07:16:17;15.68;;;10.90;;
32186;SDS011;18686;53.084;8.872;2024-03-06T07:18:46;17.05;;;11.00;;
32186;SDS011;18686;53.084;8.872;2024-03-06T07:21:15;15.73;;;10.88;;
32186;SDS011;18686;53.084;8.872;2024-03-06T07:23:44;15.93;;;11.15;;
32186;SDS011;18686;53.084;8.872;2024-03-06T07:26:13;16.08;;;10.95;;
32186;SDS011;18686;53.084;8.872;2024-03-06T07:28:42;16.10;;;10.65;;
32186;SDS011;18686;53.084;8.872;2024-03-06T07:31:13;14.70;;;10.35;;
32186;SDS011;18686;53.084;8.872;2024-03-06T07:33:42;15.05;;;10.60;;
32186;SDS011;18686;53.084;8.872;2024-03-06T07:36:10;16.20;;;10.85;;
32186;SDS011;18686;53.084;8.872;2024-03-06T07:38:38;16.45;;;10.50;;
32186;SDS011;18686;53.084;8.872;2024-03-06T07:41:08;19.90;;;11.90;;
32186;SDS011;18686;53.084;8.872;2024-03-06T07:43:36;15.63;;;9.88;;
32186;SDS011;18686;53.084;8.872;2024-03-06T07:46:06;18.73;;;11.13;;
32186;SDS011;18686;53.084;8.872;2024-03-06T07:48:38;15.55;;;10.43;;
32186;SDS011;18686;53.084;8.872;2024-03-06T07:51:10;14.10;;;10.70;;
32186;SDS011;18686;53.084;8.872;2024-03-06T07:53:38;16.55;;;10.98;;
32186;SDS011;18686;53.084;8.872;2024-03-06T07:56:07;15.45;;;10.45;;
32186;SDS011;18686;53.084;8.872;2024-03-06T07:58:38;17.02;;;11.02;;
32186;SDS011;18686;53.084;8.872;2024-03-06T08:01:08;16.85;;;10.60;;
32186;SDS011;18686;53.084;8.872;2024-03-06T08:03:38;19.33;;;10.98;;
32186;SDS011;18686;53.084;8.872;2024-03-06T08:06:07;16.20;;;10.82;;
32186;SDS011;18686;53.084;8.872;2024-03-06T08:08:36;15.75;;;10.45;;
32186;SDS011;18686;53.084;8.872;2024-03-06T08:11:07;15.05;;;10.20;;
32186;SDS011;18686;53.084;8.872;2024-03-06T08:13:37;15.63;;;11.15;;
32186;SDS011;18686;53.084;8.872;2024-03-06T08:16:06;15.50;;;10.35;;
32186;SDS011;18686;53.084;8.872;2024-03-06T08:18:36;16.50;;;11.32;;
32186;SDS011;18686;53.084;8.872;2024-03-06T08:21:04;15.30;;;10.15;;
32186;SDS011;18686;53.084;8.872;2024-03-06T08:23:33;18.15;;;10.93;;
32186;SDS011;18686;53.084;8.872;2024-03-06T08:26:01;14.82;;;10.35;;
32186;SDS011;18686;53.084;8.872;2024-03-06T08:28:29;21.02;;;10.73;;
32186;SDS011;18686;53.084;8.872;2024-03-06T08:30:58;15.95;;;10.93;;
32186;SDS011;18686;53.084;8.872;2024-03-06T08:33:27;14.25;;;9.88;;
32186;SDS011;18686;53.084;8.872;2024-03-06T08:35:57;14.50;;;10.05;;
32186;SDS011;18686;53.084;8.872;2024-03-06T08:38:25;15.32;;;10.10;;
32186;SDS011;18686;53.084;8.872;2024-03-06T08:40:54;14.25;;;10.73;;
32186;SDS011;18686;53.084;8.872;2024-03-06T08:43:22;14.32;;;9.98;;
32186;SDS011;18686;53.084;8.872;2024-03-06T08:45:50;15.73;;;9.45;;
32186;SDS011;18686;53.084;8.872;2024-03-06T08:48:20;14.18;;;10.15;;
32186;SDS011;18686;53.084;8.872;2024-03-06T08:50:49;14.43;;;10.25;;
32186;SDS011;18686;53.084;8.872;2024-03-06T08:53:19;13.05;;;9.57;;
32186;SDS011;18686;53.084;8.872;2024-03-06T08:55:48;14.98;;;9.38;;
32186;SDS011;18686;53.084;8.872;2024-03-06T08:58:16;13.57;;;9.75;;
32186;SDS011;18686;53.084;8.872;2024-03-06T09:00:47;15.25;;;10.02;;
32186;SDS011;18686;53.084;8.872;2024-03-06T09:03:15;15.80;;;10.57;;
32186;SDS011;18686;53.084;8.872;2024-03-06T09:05:44;12.82;;;9.07;;
32186;SDS011;18686;53.084;8.872;2024-03-06T09:08:12;11.68;;;8.52;;
32186;SDS011;18686;53.084;8.872;2024-03-06T09:10:42;12.10;;;9.13;;
32186;SDS011;18686;53.084;8.872;2024-03-06T09:13:10;11.77;;;8.60;;
32186;SDS011;18686;53.084;8.872;2024-03-06T09:15:38;13.85;;;9.15;;
32186;SDS011;18686;53.084;8.872;2024-03-06T09:18:07;14.50;;;9.57;;
32186;SDS011;18686;53.084;8.872;2024-03-06T09:20:35;14.38;;;9.40;;
32186;SDS011;18686;53.084;8.872;2024-03-06T09:23:04;14.00;;;9.45;;
32186;SDS011;18686;53.084;8.872;2024-03-06T09:25:32;12.40;;;8.95;;
32186;SDS011;18686;53.084;8.872;2024-03-06T09:28:02;13.90;;;9.45;;
32186;SDS011;18686;53.084;8.872;2024-03-06T09:30:31;12.48;;;9.00;;
32186;SDS011;18686;53.084;8.872;2024-03-06T09:33:00;18.10;;;9.82;;
32186;SDS011;18686;53.084;8.872;2024-03-06T09:35:28;13.07;;;9.13;;
32186;SDS011;18686;53.084;8.872;2024-03-06T09:37:59;12.23;;;8.80;;
32186;SDS011;18686;53.084;8.872;2024-03-06T09:40:28;11.48;;;8.18;;
32186;SDS011;18686;53.084;8.872;2024-03-06T09:42:57;11.70;;;7.82;;
32186;SDS011;18686;53.084;8.872;2024-03-06T09:45:27;11.18;;;8.05;;
32186;SDS011;18686;53.084;8.872;2024-03-06T09:47:55;10.60;;;7.75;;
32186;SDS011;18686;53.084;8.872;2024-03-06T09:50:24;16.88;;;9.57;;
32186;SDS011;18686;53.084;8.872;2024-03-06T09:52:54;14.18;;;10.02;;
32186;SDS011;18686;53.084;8.872;2024-03-06T09:55:23;10.70;;;8.20;;
32186;SDS011;18686;53.084;8.872;2024-03-06T09:57:54;13.23;;;8.90;;
32186;SDS011;18686;53.084;8.872;2024-03-06T10:00:22;12.80;;;8.73;;
32186;SDS011;18686;53.084;8.872;2024-03-06T10:02:54;13.50;;;9.25;;
32186;SDS011;18686;53.084;8.872;2024-03-06T10:05:26;9.95;;;7.82;;
32186;SDS011;18686;53.084;8.872;2024-03-06T10:07:57;12.10;;;8.82;;
32186;SDS011;18686;53.084;8.872;2024-03-06T10:10:26;13.52;;;9.18;;
32186;SDS011;18686;53.084;8.872;2024-03-06T10:12:55;12.60;;;8.95;;
32186;SDS011;18686;53.084;8.872;2024-03-06T10:15:29;22.23;;;10.07;;
32186;SDS011;18686;53.084;8.872;2024-03-06T10:18:11;17.20;;;9.57;;
32186;SDS011;18686;53.084;8.872;2024-03-06T10:20:42;15.40;;;9.25;;
32186;SDS011;18686;53.084;8.872;2024-03-06T10:23:11;11.77;;;8.55;;
32186;SDS011;18686;53.084;8.872;2024-03-06T10:25:42;11.77;;;9.05;;
32186;SDS011;18686;53.084;8.872;2024-03-06T10:28:12;12.38;;;8.68;;
32186;SDS011;18686;53.084;8.872;2024-03-06T10:30:41;12.50;;;8.85;;
32186;SDS011;18686;53.084;8.872;2024-03-06T10:33:11;11.55;;;8.73;;
32186;SDS011;18686;53.084;8.872;2024-03-06T10:35:41;16.20;;;10.50;;
32186;SDS011;18686;53.084;8.872;2024-03-06T10:38:11;13.80;;;8.80;;
32186;SDS011;18686;53.084;8.872;2024-03-06T10:40:40;13.15;;;9.18;;
32186;SDS011;18686;53.084;8.872;2024-03-06T10:43:10;14.48;;;10.73;;
32186;SDS011;18686;53.084;8.872;2024-03-06T10:45:40;13.00;;;8.98;;
32186;SDS011;18686;53.084;8.872;2024-03-06T10:48:14;11.20;;;7.93;;
32186;SDS011;18686;53.084;8.872;2024-03-06T10:50:44;15.18;;;8.80;;
32186;SDS011;18686;53.084;8.872;2024-03-06T10:53:14;15.88;;;9.48;;
32186;SDS011;18686;53.084;8.872;2024-03-06T10:55:49;14.65;;;9.32;;
32186;SDS011;18686;53.084;8.872;2024-03-06T10:58:18;14.05;;;9.77;;
32186;SDS011;18686;53.084;8.872;2024-03-06T11:00:48;18.08;;;10.75;;
32186;SDS011;18686;53.084;8.872;2024-03-06T11:03:18;15.10;;;9.98;;
32186;SDS011;18686;53.084;8.872;2024-03-06T11:05:47;16.05;;;10.73;;
32186;SDS011;18686;53.084;8.872;2024-03-06T11:08:18;16.33;;;10.30;;
32186;SDS011;18686;53.084;8.872;2024-03-06T11:10:47;16.05;;;10.88;;
32186;SDS011;18686;53.084;8.872;2024-03-06T11:13:22;14.73;;;9.98;;
32186;SDS011;18686;53.084;8.872;2024-03-06T11:15:53;19.33;;;10.52;;
32186;SDS011;18686;53.084;8.872;2024-03-06T11:18:44;14.25;;;10.02;;
32186;SDS011;18686;53.084;8.872;2024-03-06T11:21:29;15.35;;;9.70;;
32186;SDS011;18686;53.084;8.872;2024-03-06T11:26:47;14.80;;;8.68;;
32186;SDS011;18686;53.084;8.872;2024-03-06T11:29:17;13.50;;;8.60;;
32186;SDS011;18686;53.084;8.872;2024-03-06T11:34:38;12.57;;;9.13;;
32186;SDS011;18686;53.084;8.872;2024-03-06T11:37:07;17.83;;;8.10;;
32186;SDS011;18686;53.084;8.872;2024-03-06T11:39:38;15.40;;;8.13;;
32186;SDS011;18686;53.084;8.872;2024-03-06T11:42:08;11.57;;;8.35;;
32186;SDS011;18686;53.084;8.872;2024-03-06T11:44:36;8.70;;;7.30;;
32186;SDS011;18686;53.084;8.872;2024-03-06T11:47:21;12.73;;;7.78;;
32186;SDS011;18686;53.084;8.872;2024-03-06T11:49:50;9.65;;;8.00;;
32186;SDS011;18686;53.084;8.872;2024-03-06T11:52:21;9.57;;;7.38;;
32186;SDS011;18686;53.084;8.872;2024-03-06T11:54:50;9.27;;;7.68;;
32186;SDS011;18686;53.084;8.872;2024-03-06T11:57:20;13.90;;;7.65;;
32186;SDS011;18686;53.084;8.872;2024-03-06T11:59:51;11.60;;;8.32;;
32186;SDS011;18686;53.084;8.872;2024-03-06T12:02:21;12.30;;;8.15;;
32186;SDS011;18686;53.084;8.872;2024-03-06T12:04:51;10.38;;;7.90;;
32186;SDS011;18686;53.084;8.872;2024-03-06T12:07:20;10.20;;;7.80;;
32186;SDS011;18686;53.084;8.872;2024-03-06T12:09:48;9.40;;;7.50;;
32186;SDS011;18686;53.084;8.872;2024-03-06T12:12:17;11.55;;;8.48;;
32186;SDS011;18686;53.084;8.872;2024-03-06T12:14:55;9.43;;;7.18;;
32186;SDS011;18686;53.084;8.872;2024-03-06T12:17:25;9.02;;;7.57;;
32186;SDS011;18686;53.084;8.872;2024-03-06T12:19:54;15.30;;;7.50;;
32186;SDS011;18686;53.084;8.872;2024-03-06T12:22:24;10.20;;;7.72;;
32186;SDS011;18686;53.084;8.872;2024-03-06T12:24:58;13.40;;;6.97;;
32186;SDS011;18686;53.084;8.872;2024-03-06T12:27:27;10.65;;;6.70;;
32186;SDS011;18686;53.084;8.872;2024-03-06T12:29:56;15.05;;;8.00;;
32186;SDS011;18686;53.084;8.872;2024-03-06T12:32:24;10.70;;;7.25;;
32186;SDS011;18686;53.084;8.872;2024-03-06T12:34:58;8.93;;;6.70;;
32186;SDS011;18686;53.084;8.872;2024-03-06T12:37:28;17.67;;;8.20;;
32186;SDS011;18686;53.084;8.872;2024-03-06T12:39:58;11.25;;;7.30;;
32186;SDS011;18686;53.084;8.872;2024-03-06T12:42:26;8.85;;;7.95;;
32186;SDS011;18686;53.084;8.872;2024-03-06T12:44:55;10.07;;;7.82;;
32186;SDS011;18686;53.084;8.872;2024-03-06T12:47:24;12.68;;;7.85;;
32186;SDS011;18686;53.084;8.872;2024-03-06T12:49:52;12.90;;;7.90;;
32186;SDS011;18686;53.084;8.872;2024-03-06T12:52:22;10.60;;;7.13;;
32186;SDS011;18686;53.084;8.872;2024-03-06T12:54:50;10.40;;;6.78;;
32186;SDS011;18686;53.084;8.872;2024-03-06T12:57:19;13.25;;;7.70;;
32186;SDS011;18686;53.084;8.872;2024-03-06T12:59:47;9.43;;;7.43;;
32186;SDS011;18686;53.084;8.872;2024-03-06T13:02:16;12.10;;;8.30;;
32186;SDS011;18686;53.084;8.872;2024-03-06T13:04:44;11.05;;;7.20;;
32186;SDS011;18686;53.084;8.872;2024-03-06T13:07:12;10.90;;;8.10;;
32186;SDS011;18686;53.084;8.872;2024-03-06T13:09:42;10.13;;;6.68;;
32186;SDS011;18686;53.084;8.872;2024-03-06T13:12:10;11.50;;;7.40;;
32186;SDS011;18686;53.084;8.872;2024-03-06T13:14:39;11.15;;;8.73;;
32186;SDS011;18686;53.084;8.872;2024-03-06T13:17:07;12.40;;;8.18;;
32186;SDS011;18686;53.084;8.872;2024-03-06T13:19:36;9.60;;;7.63;;
32186;SDS011;18686;53.084;8.872;2024-03-06T13:22:04;10.82;;;8.13;;
32186;SDS011;18686;53.084;8.872;2024-03-06T13:24:34;14.65;;;9.85;;
32186;SDS011;18686;53.084;8.872;2024-03-06T13:27:08;11.48;;;8.00;;
32186;SDS011;18686;53.084;8.872;2024-03-06T13:29:37;13.32;;;7.38;;
32186;SDS011;18686;53.084;8.872;2024-03-06T13:32:06;15.77;;;8.57;;
32186;SDS011;18686;53.084;8.872;2024-03-06T13:34:34;11.98;;;8.20;;
32186;SDS011;18686;53.084;8.872;2024-03-06T13:37:03;12.20;;;7.63;;
32186;SDS011;18686;53.084;8.872;2024-03-06T13:39:33;11.35;;;7.88;;
32186;SDS011;18686;53.084;8.872;2024-03-06T13:42:01;9.32;;;7.18;;
32186;SDS011;18686;53.084;8.872;2024-03-06T13:44:31;9.10;;;7.47;;
32186;SDS011;18686;53.084;8.872;2024-03-06T13:47:00;15.93;;;9.95;;
32186;SDS011;18686;53.084;8.872;2024-03-06T13:49:35;12.07;;;8.65;;
32186;SDS011;18686;53.084;8.872;2024-03-06T13:52:06;16.90;;;9.55;;
32186;SDS011;18686;53.084;8.872;2024-03-06T13:54:37;11.25;;;6.97;;
32186;SDS011;18686;53.084;8.872;2024-03-06T13:57:07;11.20;;;8.35;;
32186;SDS011;18686;53.084;8.872;2024-03-06T13:59:37;15.13;;;8.35;;
32186;SDS011;18686;53.084;8.872;2024-03-06T14:02:06;14.18;;;8.23;;
32186;SDS011;18686;53.084;8.872;2024-03-06T14:04:35;11.35;;;9.38;;
32186;SDS011;18686;53.084;8.872;2024-03-06T14:07:03;14.48;;;8.93;;
32186;SDS011;18686;53.084;8.872;2024-03-06T14:09:32;14.32;;;8.93;;
32186;SDS011;18686;53.084;8.872;2024-03-06T14:12:00;13.93;;;9.02;;
32186;SDS011;18686;53.084;8.872;2024-03-06T14:14:28;12.88;;;9.68;;
32186;SDS011;18686;53.084;8.872;2024-03-06T14:16:58;15.20;;;9.63;;
32186;SDS011;18686;53.084;8.872;2024-03-06T14:19:28;13.07;;;9.40;;
32186;SDS011;18686;53.084;8.872;2024-03-06T14:21:56;19.15;;;11.05;;
32186;SDS011;18686;53.084;8.872;2024-03-06T14:24:29;15.65;;;8.82;;
32186;SDS011;18686;53.084;8.872;2024-03-06T14:26:58;11.52;;;9.27;;
32186;SDS011;18686;53.084;8.872;2024-03-06T14:29:26;17.08;;;9.48;;
32186;SDS011;18686;53.084;8.872;2024-03-06T14:31:55;15.38;;;10.18;;
32186;SDS011;18686;53.084;8.872;2024-03-06T14:34:25;20.38;;;9.52;;
32186;SDS011;18686;53.084;8.872;2024-03-06T14:36:53;16.75;;;9.68;;
32186;SDS011;18686;53.084;8.872;2024-03-06T14:39:22;14.88;;;10.13;;
32186;SDS011;18686;53.084;8.872;2024-03-06T14:41:52;17.23;;;11.45;;
32186;SDS011;18686;53.084;8.872;2024-03-06T14:44:20;14.98;;;10.20;;
32186;SDS011;18686;53.084;8.872;2024-03-06T14:46:49;17.17;;;10.82;;
32186;SDS011;18686;53.084;8.872;2024-03-06T14:49:17;16.27;;;11.05;;
32186;SDS011;18686;53.084;8.872;2024-03-06T14:51:47;16.55;;;10.60;;
32186;SDS011;18686;53.084;8.872;2024-03-06T14:54:15;17.15;;;10.93;;